weather station
Area: 11014 km2
The highest point: Tok (865 m.s.l.)
Total stations: 46
Stations online: 43
Stations offline: 3
Current weather
17°C

Meteorological map - weather stations in Středočeský

. The meteorological maps show weather information from WARIO weather stations

Weather stations Středočeský

 UpdatesNameStatusTemperatureHumidityWind speedWind direction
19.8.2017 20:38Kolín20.3 °C64.9 %0.2 m/s SW
19.8.2017 20:37Bechov17.1 °C80.4 %0.4 m/s NE
19.8.2017 20:37Bořanovice16.5 °C70.1 %0.0 m/s S
27.7.2017 23:59Kutná Hora15.5 °C99.0 %0.0 m/s S
19.8.2017 20:38Králův Dvůr17.6 °C58.2 %2.1 m/s W
19.8.2017 20:37Opolany18.2 °C74.4 %0.0 m/s W
19.8.2017 20:38Hostín u Vojkovic18.1 °C72.1 %0.7 m/s SW
19.8.2017 20:37Sedlčany15.3 °C79.6 %0.7 m/s NE
10.8.2017 16:56Hradištko I31.5 °C40.3 %2.2 m/s SE
19.8.2017 20:38Hřebeč17.5 °C55.5 %0.9 m/s S
19.8.2017 20:38Kladno17.8 °C50.6 %0.0 m/s NW
19.8.2017 20:37Mělník19.4 °C54.5 %0.7 m/s W
19.8.2017 20:37Jiřetice14.8 °C95.1 %0.0 m/s E
19.8.2017 20:37Kněžmost20.8 °C84.7 %0.0 m/s SE
19.8.2017 20:37Kojetice18.5 °C55.3 %1.1 m/s W
19.8.2017 20:37Křinec18.8 °C67.8 %0.0 m/s SW
19.8.2017 20:38Ledečky16.6 °C84.3 %0.0 m/s S
19.8.2017 20:38Libeř16.4 °C81.9 %0.9 m/s N
19.8.2017 20:37Sazená18.0 °C59.5 %2.9 m/s W
19.8.2017 20:37Malý Újezd17.5 °C67.5 %0.9 m/s SW
19.8.2017 20:38Zdice18.4 °C53.1 %1.0 m/s SW
19.8.2017 20:37Červený Újezd16.3 °C66.4 %1.1 m/s NE
19.8.2017 20:38Mělník19.4 °C52.3 %0.5 m/s S
19.8.2017 20:38Řevnice16.1 °C85.6 %0.0 m/s E
19.8.2017 20:38Olešná15.5 °C65.2 %1.3 m/s SW
19.8.2017 20:37Srby16.2 °C72.7 %0.0 m/s N
19.8.2017 20:38Kralupy nad Vltavou19.0 °C50.8 %1.2 m/s NW
19.8.2017 20:37Mrač16.2 °C80.4 %0.0 m/s SW
19.8.2017 20:38Dolní Jirčany16.0 °C82.4 %1.0 m/s S
19.8.2017 20:37Mladá Boleslav18.5 °C81.2 %0.0 m/s NE
19.8.2017 20:37Bratčice16.9 °C77.5 %0.0 m/s W
29.6.2017 15:39Mratín16.2 °C100.0 %0.0 m/s SW
19.8.2017 20:37Odolena voda18.4 °C50.5 %2.7 m/s NE
19.8.2017 20:38Oseček17.9 °C100.0 %0.0 m/s NE
19.8.2017 20:37Pátek18.1 °C76.3 %0.0 m/s W
19.8.2017 20:37Radlice15.7 °C81.8 %0.7 m/s NE
19.8.2017 20:38Semice17.5 °C75.0 %1.2 m/s S
19.8.2017 20:38Kosmonosy16.8 °C84.9 %0.8 m/s NE
19.8.2017 20:38Srby16.2 °C70.6 %0.8 m/s N
19.8.2017 20:37Vestec16.3 °C75.5 %0.6 m/s W
19.8.2017 20:38Vidice17.6 °C100.0 %0.0 m/s NE
19.8.2017 20:37Nebřich15.7 °C87.5 %1.1 m/s W
19.8.2017 20:37Vrbčany17.3 °C78.6 %0.0 m/s E
19.8.2017 20:38Všetaty18.7 °C58.1 %0.9 m/s W
19.8.2017 20:37Chlístovice16.5 °C76.4 %0.5 m/s SE
19.8.2017 20:37Zibohlavy17.1 °C83.8 %0.9 m/s NW
Email notifications
Enter your email address to subscribe to notifications about news at warioweather.com. Your email address will not be used for any purpose other than sending these emails and will not be provided to any third party. The subscription can be ended at any time.
All data are only indicative. The portal administrator has no responsibility for potentially incorrect data and related consequences. Publishing or further sharing of content from www.warioweather.com is only allowed with written consent from WANET s.r.o.